sensor_id;sensor_type;location;lat;lon;timestamp;temperature;humidity
21772;DHT22;11047;47.904;8.110;2022-10-17T00:01:42;8.70;99.90
21772;DHT22;11047;47.904;8.110;2022-10-17T00:04:09;8.70;99.90
21772;DHT22;11047;47.904;8.110;2022-10-17T00:06:38;8.70;99.90
21772;DHT22;11047;47.904;8.110;2022-10-17T00:09:05;8.70;99.90
21772;DHT22;11047;47.904;8.110;2022-10-17T00:11:32;8.60;99.90
21772;DHT22;11047;47.904;8.110;2022-10-17T00:13:59;8.70;99.90
21772;DHT22;11047;47.904;8.110;2022-10-17T00:16:28;8.60;99.90
21772;DHT22;11047;47.904;8.110;2022-10-17T00:18:57;8.60;99.90
21772;DHT22;11047;47.904;8.110;2022-10-17T00:21:25;8.60;99.90
21772;DHT22;11047;47.904;8.110;2022-10-17T00:23:53;8.70;99.90
21772;DHT22;11047;47.904;8.110;2022-10-17T00:26:21;8.70;99.90
21772;DHT22;11047;47.904;8.110;2022-10-17T00:28:49;8.70;99.90
21772;DHT22;11047;47.904;8.110;2022-10-17T00:31:17;8.60;99.90
21772;DHT22;11047;47.904;8.110;2022-10-17T00:33:45;8.70;99.90
21772;DHT22;11047;47.904;8.110;2022-10-17T00:36:13;8.70;99.90
21772;DHT22;11047;47.904;8.110;2022-10-17T00:38:42;8.60;99.90
21772;DHT22;11047;47.904;8.110;2022-10-17T00:41:14;8.70;99.90
21772;DHT22;11047;47.904;8.110;2022-10-17T00:43:52;8.70;99.90
21772;DHT22;11047;47.904;8.110;2022-10-17T00:46:20;8.60;99.90
21772;DHT22;11047;47.904;8.110;2022-10-17T00:48:48;8.50;99.90
21772;DHT22;11047;47.904;8.110;2022-10-17T00:51:18;8.40;99.90
21772;DHT22;11047;47.904;8.110;2022-10-17T00:53:46;8.40;99.90
21772;DHT22;11047;47.904;8.110;2022-10-17T00:56:16;8.40;99.90
21772;DHT22;11047;47.904;8.110;2022-10-17T00:58:44;8.30;99.90
21772;DHT22;11047;47.904;8.110;2022-10-17T01:01:11;8.40;99.90
21772;DHT22;11047;47.904;8.110;2022-10-17T01:03:38;8.40;99.90
21772;DHT22;11047;47.904;8.110;2022-10-17T01:06:05;8.50;99.90
21772;DHT22;11047;47.904;8.110;2022-10-17T01:08:32;8.50;99.90
21772;DHT22;11047;47.904;8.110;2022-10-17T01:11:05;8.50;99.90
21772;DHT22;11047;47.904;8.110;2022-10-17T01:13:38;8.50;99.90
21772;DHT22;11047;47.904;8.110;2022-10-17T01:16:10;8.50;99.90
21772;DHT22;11047;47.904;8.110;2022-10-17T01:18:50;8.50;99.90
21772;DHT22;11047;47.904;8.110;2022-10-17T01:21:42;8.40;99.90
21772;DHT22;11047;47.904;8.110;2022-10-17T01:24:32;8.40;99.90
21772;DHT22;11047;47.904;8.110;2022-10-17T01:27:24;8.70;99.90
21772;DHT22;11047;47.904;8.110;2022-10-17T01:30:07;8.30;99.90
21772;DHT22;11047;47.904;8.110;2022-10-17T01:32:44;8.30;99.90
21772;DHT22;11047;47.904;8.110;2022-10-17T01:35:18;8.30;99.90
21772;DHT22;11047;47.904;8.110;2022-10-17T01:37:51;8.30;99.90
21772;DHT22;11047;47.904;8.110;2022-10-17T01:40:24;8.20;99.90
21772;DHT22;11047;47.904;8.110;2022-10-17T01:42:56;8.20;99.90
21772;DHT22;11047;47.904;8.110;2022-10-17T01:45:27;8.10;99.90
21772;DHT22;11047;47.904;8.110;2022-10-17T01:48:02;8.20;99.90
21772;DHT22;11047;47.904;8.110;2022-10-17T01:50:33;8.00;99.90
21772;DHT22;11047;47.904;8.110;2022-10-17T01:53:05;8.10;99.90
21772;DHT22;11047;47.904;8.110;2022-10-17T01:55:36;8.40;99.90
21772;DHT22;11047;47.904;8.110;2022-10-17T01:58:08;8.10;99.90
21772;DHT22;11047;47.904;8.110;2022-10-17T02:00:36;8.00;99.90
21772;DHT22;11047;47.904;8.110;2022-10-17T02:03:08;8.00;99.90
21772;DHT22;11047;47.904;8.110;2022-10-17T02:05:39;8.00;99.90
21772;DHT22;11047;47.904;8.110;2022-10-17T02:08:08;8.10;99.90
21772;DHT22;11047;47.904;8.110;2022-10-17T02:10:38;8.10;99.90
21772;DHT22;11047;47.904;8.110;2022-10-17T02:13:10;8.10;99.90
21772;DHT22;11047;47.904;8.110;2022-10-17T02:16:06;8.00;99.90
21772;DHT22;11047;47.904;8.110;2022-10-17T02:18:46;8.10;99.90
21772;DHT22;11047;47.904;8.110;2022-10-17T02:21:24;8.10;99.90
21772;DHT22;11047;47.904;8.110;2022-10-17T02:23:57;8.20;99.90
21772;DHT22;11047;47.904;8.110;2022-10-17T02:26:31;8.00;99.90
21772;DHT22;11047;47.904;8.110;2022-10-17T02:29:04;8.00;99.90
21772;DHT22;11047;47.904;8.110;2022-10-17T02:31:39;8.00;99.90
21772;DHT22;11047;47.904;8.110;2022-10-17T02:34:13;8.00;99.90
21772;DHT22;11047;47.904;8.110;2022-10-17T02:36:45;8.00;99.90
21772;DHT22;11047;47.904;8.110;2022-10-17T02:39:14;7.90;99.90
21772;DHT22;11047;47.904;8.110;2022-10-17T02:41:42;8.00;99.90
21772;DHT22;11047;47.904;8.110;2022-10-17T02:44:10;7.90;99.90
21772;DHT22;11047;47.904;8.110;2022-10-17T02:46:39;7.80;99.90
21772;DHT22;11047;47.904;8.110;2022-10-17T02:49:13;7.80;99.90
21772;DHT22;11047;47.904;8.110;2022-10-17T02:51:44;7.90;99.90
21772;DHT22;11047;47.904;8.110;2022-10-17T02:54:17;7.80;99.90
21772;DHT22;11047;47.904;8.110;2022-10-17T02:56:50;7.80;99.90
21772;DHT22;11047;47.904;8.110;2022-10-17T02:59:21;7.80;99.90
21772;DHT22;11047;47.904;8.110;2022-10-17T03:01:49;8.00;99.90
21772;DHT22;11047;47.904;8.110;2022-10-17T03:04:18;7.80;99.90
21772;DHT22;11047;47.904;8.110;2022-10-17T03:06:46;7.80;99.90
21772;DHT22;11047;47.904;8.110;2022-10-17T03:09:13;7.80;99.90
21772;DHT22;11047;47.904;8.110;2022-10-17T03:11:40;7.80;99.90
21772;DHT22;11047;47.904;8.110;2022-10-17T03:14:07;7.80;99.90
21772;DHT22;11047;47.904;8.110;2022-10-17T03:16:34;7.80;99.90
21772;DHT22;11047;47.904;8.110;2022-10-17T03:19:01;7.70;99.90
21772;DHT22;11047;47.904;8.110;2022-10-17T03:21:30;7.70;99.90
21772;DHT22;11047;47.904;8.110;2022-10-17T03:23:56;7.70;99.90
21772;DHT22;11047;47.904;8.110;2022-10-17T03:26:23;7.70;99.90
21772;DHT22;11047;47.904;8.110;2022-10-17T03:28:50;7.60;99.90
21772;DHT22;11047;47.904;8.110;2022-10-17T03:31:17;7.60;99.90
21772;DHT22;11047;47.904;8.110;2022-10-17T03:33:44;7.60;99.90
21772;DHT22;11047;47.904;8.110;2022-10-17T03:36:13;7.60;99.90
21772;DHT22;11047;47.904;8.110;2022-10-17T03:38:42;7.60;99.90
21772;DHT22;11047;47.904;8.110;2022-10-17T03:41:09;7.70;99.90
21772;DHT22;11047;47.904;8.110;2022-10-17T03:43:36;7.50;99.90
21772;DHT22;11047;47.904;8.110;2022-10-17T03:46:04;7.50;99.90
21772;DHT22;11047;47.904;8.110;2022-10-17T03:48:31;7.50;99.90
21772;DHT22;11047;47.904;8.110;2022-10-17T03:50:59;7.50;99.90
21772;DHT22;11047;47.904;8.110;2022-10-17T03:53:26;7.50;99.90
21772;DHT22;11047;47.904;8.110;2022-10-17T03:55:55;7.50;99.90
21772;DHT22;11047;47.904;8.110;2022-10-17T03:58:22;7.50;99.90
21772;DHT22;11047;47.904;8.110;2022-10-17T04:00:49;7.50;99.90
21772;DHT22;11047;47.904;8.110;2022-10-17T04:03:16;7.50;99.90
21772;DHT22;11047;47.904;8.110;2022-10-17T04:05:43;8.00;99.90
21772;DHT22;11047;47.904;8.110;2022-10-17T04:08:10;7.40;99.90
21772;DHT22;11047;47.904;8.110;2022-10-17T04:10:37;7.40;99.90
21772;DHT22;11047;47.904;8.110;2022-10-17T04:13:05;7.50;99.90
21772;DHT22;11047;47.904;8.110;2022-10-17T04:15:32;7.40;99.90
21772;DHT22;11047;47.904;8.110;2022-10-17T04:17:59;7.40;99.90
21772;DHT22;11047;47.904;8.110;2022-10-17T04:20:26;7.40;99.90
21772;DHT22;11047;47.904;8.110;2022-10-17T04:22:53;7.50;99.90
21772;DHT22;11047;47.904;8.110;2022-10-17T04:25:20;7.50;99.90
21772;DHT22;11047;47.904;8.110;2022-10-17T04:27:46;7.60;99.90
21772;DHT22;11047;47.904;8.110;2022-10-17T04:30:16;7.40;99.90
21772;DHT22;11047;47.904;8.110;2022-10-17T04:32:43;7.30;99.90
21772;DHT22;11047;47.904;8.110;2022-10-17T04:35:09;7.30;99.90
21772;DHT22;11047;47.904;8.110;2022-10-17T04:37:36;7.30;99.90
21772;DHT22;11047;47.904;8.110;2022-10-17T04:40:04;8.00;99.90
21772;DHT22;11047;47.904;8.110;2022-10-17T04:42:31;7.30;99.90
21772;DHT22;11047;47.904;8.110;2022-10-17T04:44:58;7.20;99.90
21772;DHT22;11047;47.904;8.110;2022-10-17T04:47:26;7.20;99.90
21772;DHT22;11047;47.904;8.110;2022-10-17T04:49:53;7.20;99.90
21772;DHT22;11047;47.904;8.110;2022-10-17T04:52:20;7.30;99.90
21772;DHT22;11047;47.904;8.110;2022-10-17T04:54:47;7.20;99.90
21772;DHT22;11047;47.904;8.110;2022-10-17T04:57:13;7.20;99.90
21772;DHT22;11047;47.904;8.110;2022-10-17T04:59:40;7.20;99.90
21772;DHT22;11047;47.904;8.110;2022-10-17T05:02:07;7.20;99.90
21772;DHT22;11047;47.904;8.110;2022-10-17T05:04:35;7.30;99.90
21772;DHT22;11047;47.904;8.110;2022-10-17T05:07:02;7.20;99.90
21772;DHT22;11047;47.904;8.110;2022-10-17T05:09:29;7.20;99.90
21772;DHT22;11047;47.904;8.110;2022-10-17T05:11:56;7.20;99.90
21772;DHT22;11047;47.904;8.110;2022-10-17T05:14:23;7.30;99.90
21772;DHT22;11047;47.904;8.110;2022-10-17T05:16:50;7.20;99.90
21772;DHT22;11047;47.904;8.110;2022-10-17T05:19:17;7.10;99.90
21772;DHT22;11047;47.904;8.110;2022-10-17T05:21:45;7.20;99.90
21772;DHT22;11047;47.904;8.110;2022-10-17T05:24:13;7.10;99.90
21772;DHT22;11047;47.904;8.110;2022-10-17T05:26:40;7.10;99.90
21772;DHT22;11047;47.904;8.110;2022-10-17T05:29:07;7.10;99.90
21772;DHT22;11047;47.904;8.110;2022-10-17T05:31:34;7.10;99.90
21772;DHT22;11047;47.904;8.110;2022-10-17T05:34:02;7.10;99.90
21772;DHT22;11047;47.904;8.110;2022-10-17T05:36:29;7.10;99.90
21772;DHT22;11047;47.904;8.110;2022-10-17T05:38:57;7.10;99.90
21772;DHT22;11047;47.904;8.110;2022-10-17T05:41:24;7.10;99.90
21772;DHT22;11047;47.904;8.110;2022-10-17T05:43:51;7.10;99.90
21772;DHT22;11047;47.904;8.110;2022-10-17T05:46:18;6.50;99.90
21772;DHT22;11047;47.904;8.110;2022-10-17T05:48:45;7.00;99.90
21772;DHT22;11047;47.904;8.110;2022-10-17T05:51:12;7.00;99.90
21772;DHT22;11047;47.904;8.110;2022-10-17T05:53:40;7.10;99.90
21772;DHT22;11047;47.904;8.110;2022-10-17T05:56:10;7.10;99.90
21772;DHT22;11047;47.904;8.110;2022-10-17T05:58:40;7.10;99.90
21772;DHT22;11047;47.904;8.110;2022-10-17T06:01:09;7.10;99.90
21772;DHT22;11047;47.904;8.110;2022-10-17T06:03:36;7.40;99.90
21772;DHT22;11047;47.904;8.110;2022-10-17T06:06:04;7.10;99.90
21772;DHT22;11047;47.904;8.110;2022-10-17T06:08:31;7.10;99.90
21772;DHT22;11047;47.904;8.110;2022-10-17T06:10:58;7.10;99.90
21772;DHT22;11047;47.904;8.110;2022-10-17T06:13:26;7.10;99.90
21772;DHT22;11047;47.904;8.110;2022-10-17T06:15:53;7.20;99.90
21772;DHT22;11047;47.904;8.110;2022-10-17T06:18:21;7.20;99.90
21772;DHT22;11047;47.904;8.110;2022-10-17T06:20:48;7.00;99.90
21772;DHT22;11047;47.904;8.110;2022-10-17T06:23:15;7.00;99.90
21772;DHT22;11047;47.904;8.110;2022-10-17T06:25:41;7.20;99.90
21772;DHT22;11047;47.904;8.110;2022-10-17T06:28:09;7.50;99.90
21772;DHT22;11047;47.904;8.110;2022-10-17T06:30:39;7.20;99.90
21772;DHT22;11047;47.904;8.110;2022-10-17T06:33:06;7.30;99.90
21772;DHT22;11047;47.904;8.110;2022-10-17T06:35:33;7.30;99.90
21772;DHT22;11047;47.904;8.110;2022-10-17T06:38:00;7.40;99.90
21772;DHT22;11047;47.904;8.110;2022-10-17T06:40:27;7.40;99.90
21772;DHT22;11047;47.904;8.110;2022-10-17T06:42:55;7.40;99.90
21772;DHT22;11047;47.904;8.110;2022-10-17T06:45:22;7.50;99.90
21772;DHT22;11047;47.904;8.110;2022-10-17T06:47:50;7.60;99.90
21772;DHT22;11047;47.904;8.110;2022-10-17T06:50:17;7.60;99.90
21772;DHT22;11047;47.904;8.110;2022-10-17T06:52:44;7.70;99.90
21772;DHT22;11047;47.904;8.110;2022-10-17T06:55:11;7.70;99.90
21772;DHT22;11047;47.904;8.110;2022-10-17T06:57:38;7.80;99.90
21772;DHT22;11047;47.904;8.110;2022-10-17T07:00:06;7.80;99.90
21772;DHT22;11047;47.904;8.110;2022-10-17T07:02:33;7.90;99.90
21772;DHT22;11047;47.904;8.110;2022-10-17T07:05:01;8.10;99.90
21772;DHT22;11047;47.904;8.110;2022-10-17T07:07:29;8.10;99.90
21772;DHT22;11047;47.904;8.110;2022-10-17T07:09:57;8.30;99.90
21772;DHT22;11047;47.904;8.110;2022-10-17T07:12:24;8.30;99.90
21772;DHT22;11047;47.904;8.110;2022-10-17T07:14:51;8.40;99.90
21772;DHT22;11047;47.904;8.110;2022-10-17T07:17:18;8.40;99.90
21772;DHT22;11047;47.904;8.110;2022-10-17T07:19:45;8.50;99.90
21772;DHT22;11047;47.904;8.110;2022-10-17T07:22:13;8.50;99.90
21772;DHT22;11047;47.904;8.110;2022-10-17T07:24:40;8.70;99.90
21772;DHT22;11047;47.904;8.110;2022-10-17T07:27:07;8.70;99.90
21772;DHT22;11047;47.904;8.110;2022-10-17T07:29:34;8.80;99.90
21772;DHT22;11047;47.904;8.110;2022-10-17T07:32:00;8.90;99.90
21772;DHT22;11047;47.904;8.110;2022-10-17T07:34:28;9.00;99.90
21772;DHT22;11047;47.904;8.110;2022-10-17T07:36:56;9.00;99.90
21772;DHT22;11047;47.904;8.110;2022-10-17T07:39:24;9.10;99.90
21772;DHT22;11047;47.904;8.110;2022-10-17T07:41:51;9.20;99.90
21772;DHT22;11047;47.904;8.110;2022-10-17T07:44:18;9.40;99.90
21772;DHT22;11047;47.904;8.110;2022-10-17T07:46:45;9.50;99.90
21772;DHT22;11047;47.904;8.110;2022-10-17T07:49:12;9.60;99.90
21772;DHT22;11047;47.904;8.110;2022-10-17T07:51:39;9.60;99.90
21772;DHT22;11047;47.904;8.110;2022-10-17T07:54:06;9.80;99.90
21772;DHT22;11047;47.904;8.110;2022-10-17T07:56:34;9.90;99.90
21772;DHT22;11047;47.904;8.110;2022-10-17T07:59:01;10.10;99.90
21772;DHT22;11047;47.904;8.110;2022-10-17T08:01:28;10.20;99.90
21772;DHT22;11047;47.904;8.110;2022-10-17T08:03:55;10.30;99.90
21772;DHT22;11047;47.904;8.110;2022-10-17T08:06:22;10.50;99.90
21772;DHT22;11047;47.904;8.110;2022-10-17T08:08:49;10.60;99.90
21772;DHT22;11047;47.904;8.110;2022-10-17T08:11:15;10.80;99.90
21772;DHT22;11047;47.904;8.110;2022-10-17T08:13:44;11.00;99.90
21772;DHT22;11047;47.904;8.110;2022-10-17T08:16:12;11.30;99.90
21772;DHT22;11047;47.904;8.110;2022-10-17T08:18:40;11.70;99.90
21772;DHT22;11047;47.904;8.110;2022-10-17T08:21:07;11.80;99.90
21772;DHT22;11047;47.904;8.110;2022-10-17T08:23:35;12.10;99.90
21772;DHT22;11047;47.904;8.110;2022-10-17T08:26:05;12.50;99.90
21772;DHT22;11047;47.904;8.110;2022-10-17T08:28:35;13.20;99.90
21772;DHT22;11047;47.904;8.110;2022-10-17T08:31:04;14.00;99.90
21772;DHT22;11047;47.904;8.110;2022-10-17T08:33:31;14.30;99.90
21772;DHT22;11047;47.904;8.110;2022-10-17T08:36:00;14.30;99.90
21772;DHT22;11047;47.904;8.110;2022-10-17T08:38:28;14.40;99.90
21772;DHT22;11047;47.904;8.110;2022-10-17T08:40:58;14.60;99.90
21772;DHT22;11047;47.904;8.110;2022-10-17T08:43:32;15.30;99.90
21772;DHT22;11047;47.904;8.110;2022-10-17T08:46:06;17.40;99.90
21772;DHT22;11047;47.904;8.110;2022-10-17T08:48:37;19.60;99.90
21772;DHT22;11047;47.904;8.110;2022-10-17T08:51:09;21.70;99.90
21772;DHT22;11047;47.904;8.110;2022-10-17T08:53:40;23.20;99.90
21772;DHT22;11047;47.904;8.110;2022-10-17T08:56:16;24.40;99.90
21772;DHT22;11047;47.904;8.110;2022-10-17T08:58:43;25.20;99.90
21772;DHT22;11047;47.904;8.110;2022-10-17T09:01:23;26.20;99.90
21772;DHT22;11047;47.904;8.110;2022-10-17T09:07:07;27.00;99.90
21772;DHT22;11047;47.904;8.110;2022-10-17T09:09:41;27.50;99.90
21772;DHT22;11047;47.904;8.110;2022-10-17T09:12:16;27.70;99.90
21772;DHT22;11047;47.904;8.110;2022-10-17T09:14:57;27.90;99.90
21772;DHT22;11047;47.904;8.110;2022-10-17T09:17:37;28.60;99.90
21772;DHT22;11047;47.904;8.110;2022-10-17T09:20:11;28.10;99.90
21772;DHT22;11047;47.904;8.110;2022-10-17T09:22:43;28.50;99.90
21772;DHT22;11047;47.904;8.110;2022-10-17T09:25:13;27.40;99.90
21772;DHT22;11047;47.904;8.110;2022-10-17T09:27:43;26.00;99.90
21772;DHT22;11047;47.904;8.110;2022-10-17T09:30:27;25.70;99.90
21772;DHT22;11047;47.904;8.110;2022-10-17T09:32:56;24.90;99.90
21772;DHT22;11047;47.904;8.110;2022-10-17T09:35:23;24.20;99.90
21772;DHT22;11047;47.904;8.110;2022-10-17T09:37:51;23.60;99.90
21772;DHT22;11047;47.904;8.110;2022-10-17T09:40:21;23.70;99.90
21772;DHT22;11047;47.904;8.110;2022-10-17T09:42:49;23.60;99.90
21772;DHT22;11047;47.904;8.110;2022-10-17T09:45:19;23.40;99.90
21772;DHT22;11047;47.904;8.110;2022-10-17T09:47:58;23.10;99.90
21772;DHT22;11047;47.904;8.110;2022-10-17T09:50:30;22.90;99.90
21772;DHT22;11047;47.904;8.110;2022-10-17T09:53:00;23.10;99.90
21772;DHT22;11047;47.904;8.110;2022-10-17T09:55:32;22.70;99.90
21772;DHT22;11047;47.904;8.110;2022-10-17T09:58:04;22.90;99.90
21772;DHT22;11047;47.904;8.110;2022-10-17T10:00:33;22.90;99.90
21772;DHT22;11047;47.904;8.110;2022-10-17T10:03:15;23.00;99.90
21772;DHT22;11047;47.904;8.110;2022-10-17T10:05:56;23.10;99.90
21772;DHT22;11047;47.904;8.110;2022-10-17T10:08:27;23.50;99.90
21772;DHT22;11047;47.904;8.110;2022-10-17T10:10:57;23.30;99.90
21772;DHT22;11047;47.904;8.110;2022-10-17T10:13:26;23.20;99.90
21772;DHT22;11047;47.904;8.110;2022-10-17T10:15:53;23.30;99.90
21772;DHT22;11047;47.904;8.110;2022-10-17T10:18:39;23.30;99.90
21772;DHT22;11047;47.904;8.110;2022-10-17T10:21:08;23.40;99.90
21772;DHT22;11047;47.904;8.110;2022-10-17T10:23:36;23.50;99.90
21772;DHT22;11047;47.904;8.110;2022-10-17T10:28:57;23.60;99.90
21772;DHT22;11047;47.904;8.110;2022-10-17T10:31:33;23.40;99.90
21772;DHT22;11047;47.904;8.110;2022-10-17T10:34:13;23.40;99.90
21772;DHT22;11047;47.904;8.110;2022-10-17T10:36:47;23.50;99.90
21772;DHT22;11047;47.904;8.110;2022-10-17T10:39:31;23.60;99.90
21772;DHT22;11047;47.904;8.110;2022-10-17T10:42:01;23.60;99.90
21772;DHT22;11047;47.904;8.110;2022-10-17T10:44:36;23.70;99.90
21772;DHT22;11047;47.904;8.110;2022-10-17T10:47:14;23.90;99.90
21772;DHT22;11047;47.904;8.110;2022-10-17T10:49:43;23.70;99.90
21772;DHT22;11047;47.904;8.110;2022-10-17T10:52:16;23.80;99.90
21772;DHT22;11047;47.904;8.110;2022-10-17T10:54:53;23.70;99.90
21772;DHT22;11047;47.904;8.110;2022-10-17T10:57:24;23.60;99.90
21772;DHT22;11047;47.904;8.110;2022-10-17T10:59:59;23.50;99.90
21772;DHT22;11047;47.904;8.110;2022-10-17T11:02:32;23.40;99.90
21772;DHT22;11047;47.904;8.110;2022-10-17T11:05:05;23.50;99.90
21772;DHT22;11047;47.904;8.110;2022-10-17T11:07:39;23.50;99.90
21772;DHT22;11047;47.904;8.110;2022-10-17T11:10:12;23.60;99.90
21772;DHT22;11047;47.904;8.110;2022-10-17T11:12:42;23.60;99.90
21772;DHT22;11047;47.904;8.110;2022-10-17T11:15:18;23.80;99.90
21772;DHT22;11047;47.904;8.110;2022-10-17T11:17:54;23.60;99.90
21772;DHT22;11047;47.904;8.110;2022-10-17T11:20:29;23.40;99.90
21772;DHT22;11047;47.904;8.110;2022-10-17T11:23:09;23.50;99.90
21772;DHT22;11047;47.904;8.110;2022-10-17T11:25:44;23.60;99.90
21772;DHT22;11047;47.904;8.110;2022-10-17T11:28:13;23.50;99.90
21772;DHT22;11047;47.904;8.110;2022-10-17T11:30:45;23.50;99.90
21772;DHT22;11047;47.904;8.110;2022-10-17T11:33:18;23.40;99.90
21772;DHT22;11047;47.904;8.110;2022-10-17T11:35:51;23.30;99.90
21772;DHT22;11047;47.904;8.110;2022-10-17T11:38:24;23.30;99.90
21772;DHT22;11047;47.904;8.110;2022-10-17T11:40:58;23.20;99.90
21772;DHT22;11047;47.904;8.110;2022-10-17T11:43:27;23.00;99.90
21772;DHT22;11047;47.904;8.110;2022-10-17T11:45:58;23.20;99.90
21772;DHT22;11047;47.904;8.110;2022-10-17T11:48:29;22.90;99.90
21772;DHT22;11047;47.904;8.110;2022-10-17T11:51:05;22.80;99.90
21772;DHT22;11047;47.904;8.110;2022-10-17T11:53:45;22.90;99.90
21772;DHT22;11047;47.904;8.110;2022-10-17T11:56:18;22.80;99.90
21772;DHT22;11047;47.904;8.110;2022-10-17T11:58:51;22.60;99.90
21772;DHT22;11047;47.904;8.110;2022-10-17T12:01:26;22.60;99.90
21772;DHT22;11047;47.904;8.110;2022-10-17T12:04:13;22.70;99.90
21772;DHT22;11047;47.904;8.110;2022-10-17T12:06:51;22.50;99.90
21772;DHT22;11047;47.904;8.110;2022-10-17T12:09:28;22.40;99.90
21772;DHT22;11047;47.904;8.110;2022-10-17T12:11:58;22.00;99.90
21772;DHT22;11047;47.904;8.110;2022-10-17T12:14:40;22.30;99.90
21772;DHT22;11047;47.904;8.110;2022-10-17T12:17:28;22.10;99.90
21772;DHT22;11047;47.904;8.110;2022-10-17T12:20:23;21.90;99.90
21772;DHT22;11047;47.904;8.110;2022-10-17T12:22:54;21.70;99.90
21772;DHT22;11047;47.904;8.110;2022-10-17T12:25:23;21.70;99.90
21772;DHT22;11047;47.904;8.110;2022-10-17T12:28:12;21.80;99.90
21772;DHT22;11047;47.904;8.110;2022-10-17T12:30:52;21.90;99.90
21772;DHT22;11047;47.904;8.110;2022-10-17T12:33:21;22.10;99.90
21772;DHT22;11047;47.904;8.110;2022-10-17T12:35:49;22.10;99.90
21772;DHT22;11047;47.904;8.110;2022-10-17T12:38:35;22.10;99.90
21772;DHT22;11047;47.904;8.110;2022-10-17T12:41:05;22.00;99.90
21772;DHT22;11047;47.904;8.110;2022-10-17T12:46:45;22.00;99.90
21772;DHT22;11047;47.904;8.110;2022-10-17T12:49:36;21.70;99.90
21772;DHT22;11047;47.904;8.110;2022-10-17T12:52:16;21.80;99.90
21772;DHT22;11047;47.904;8.110;2022-10-17T12:54:47;21.60;99.90
21772;DHT22;11047;47.904;8.110;2022-10-17T12:57:20;21.50;99.90
21772;DHT22;11047;47.904;8.110;2022-10-17T12:59:51;21.30;99.90
21772;DHT22;11047;47.904;8.110;2022-10-17T13:02:22;21.40;99.90
21772;DHT22;11047;47.904;8.110;2022-10-17T13:04:52;21.30;99.90
21772;DHT22;11047;47.904;8.110;2022-10-17T13:07:21;21.20;99.90
21772;DHT22;11047;47.904;8.110;2022-10-17T13:09:50;21.20;99.90
21772;DHT22;11047;47.904;8.110;2022-10-17T13:12:20;21.30;99.90
21772;DHT22;11047;47.904;8.110;2022-10-17T13:14:50;21.40;99.90
21772;DHT22;11047;47.904;8.110;2022-10-17T13:17:23;21.40;99.90
21772;DHT22;11047;47.904;8.110;2022-10-17T13:19:52;21.10;99.90
21772;DHT22;11047;47.904;8.110;2022-10-17T13:22:20;21.20;99.90
21772;DHT22;11047;47.904;8.110;2022-10-17T13:24:50;21.00;99.90
21772;DHT22;11047;47.904;8.110;2022-10-17T13:27:23;21.00;99.90
21772;DHT22;11047;47.904;8.110;2022-10-17T13:29:51;20.90;99.90
21772;DHT22;11047;47.904;8.110;2022-10-17T13:32:18;20.90;99.90
21772;DHT22;11047;47.904;8.110;2022-10-17T13:34:45;20.90;99.90
21772;DHT22;11047;47.904;8.110;2022-10-17T13:37:13;20.80;99.90
21772;DHT22;11047;47.904;8.110;2022-10-17T13:39:44;20.90;99.90
21772;DHT22;11047;47.904;8.110;2022-10-17T13:42:22;20.80;99.90
21772;DHT22;11047;47.904;8.110;2022-10-17T13:44:49;20.80;99.90
21772;DHT22;11047;47.904;8.110;2022-10-17T13:47:21;20.80;99.90
21772;DHT22;11047;47.904;8.110;2022-10-17T13:49:48;20.80;99.90
21772;DHT22;11047;47.904;8.110;2022-10-17T13:52:18;20.80;99.90
21772;DHT22;11047;47.904;8.110;2022-10-17T13:54:46;20.70;99.90
21772;DHT22;11047;47.904;8.110;2022-10-17T13:57:19;20.70;99.90
21772;DHT22;11047;47.904;8.110;2022-10-17T13:59:48;20.70;99.90
21772;DHT22;11047;47.904;8.110;2022-10-17T14:02:21;20.70;99.90
21772;DHT22;11047;47.904;8.110;2022-10-17T14:04:59;20.60;99.90
21772;DHT22;11047;47.904;8.110;2022-10-17T14:07:32;20.60;99.90
21772;DHT22;11047;47.904;8.110;2022-10-17T14:10:00;20.70;99.90
21772;DHT22;11047;47.904;8.110;2022-10-17T14:12:32;20.70;99.90
21772;DHT22;11047;47.904;8.110;2022-10-17T14:15:01;20.70;99.90
21772;DHT22;11047;47.904;8.110;2022-10-17T14:17:29;20.70;99.90
21772;DHT22;11047;47.904;8.110;2022-10-17T14:19:58;20.60;99.90
21772;DHT22;11047;47.904;8.110;2022-10-17T14:22:28;20.60;99.90
21772;DHT22;11047;47.904;8.110;2022-10-17T14:24:55;20.70;99.90
21772;DHT22;11047;47.904;8.110;2022-10-17T14:27:28;20.50;99.90
21772;DHT22;11047;47.904;8.110;2022-10-17T14:29:58;20.60;99.90
21772;DHT22;11047;47.904;8.110;2022-10-17T14:32:28;20.60;99.90
21772;DHT22;11047;47.904;8.110;2022-10-17T14:34:56;20.60;99.90
21772;DHT22;11047;47.904;8.110;2022-10-17T14:37:33;20.60;99.90
21772;DHT22;11047;47.904;8.110;2022-10-17T14:40:03;20.60;99.90
21772;DHT22;11047;47.904;8.110;2022-10-17T14:42:30;20.40;99.90
21772;DHT22;11047;47.904;8.110;2022-10-17T14:45:04;20.30;99.90
21772;DHT22;11047;47.904;8.110;2022-10-17T14:47:32;20.20;99.90
21772;DHT22;11047;47.904;8.110;2022-10-17T14:50:05;20.00;99.90
21772;DHT22;11047;47.904;8.110;2022-10-17T14:52:33;20.10;99.90
21772;DHT22;11047;47.904;8.110;2022-10-17T14:55:18;20.00;99.90
21772;DHT22;11047;47.904;8.110;2022-10-17T14:57:46;19.90;99.90
21772;DHT22;11047;47.904;8.110;2022-10-17T15:00:21;19.90;99.90
21772;DHT22;11047;47.904;8.110;2022-10-17T15:02:49;19.80;99.90
21772;DHT22;11047;47.904;8.110;2022-10-17T15:05:16;19.70;99.90
21772;DHT22;11047;47.904;8.110;2022-10-17T15:07:44;19.70;99.90
21772;DHT22;11047;47.904;8.110;2022-10-17T15:10:29;19.60;99.90
21772;DHT22;11047;47.904;8.110;2022-10-17T15:12:57;19.60;99.90
21772;DHT22;11047;47.904;8.110;2022-10-17T15:15:27;19.60;99.90
21772;DHT22;11047;47.904;8.110;2022-10-17T15:17:54;19.60;99.90
21772;DHT22;11047;47.904;8.110;2022-10-17T15:20:21;19.50;99.90
21772;DHT22;11047;47.904;8.110;2022-10-17T15:22:50;19.40;99.90
21772;DHT22;11047;47.904;8.110;2022-10-17T15:25:17;19.30;99.90
21772;DHT22;11047;47.904;8.110;2022-10-17T15:27:44;19.20;99.90
21772;DHT22;11047;47.904;8.110;2022-10-17T15:30:17;19.10;99.90
21772;DHT22;11047;47.904;8.110;2022-10-17T15:32:46;19.10;99.90
21772;DHT22;11047;47.904;8.110;2022-10-17T15:35:14;19.10;99.90
21772;DHT22;11047;47.904;8.110;2022-10-17T15:37:41;19.00;99.90
21772;DHT22;11047;47.904;8.110;2022-10-17T15:40:13;18.90;99.90
21772;DHT22;11047;47.904;8.110;2022-10-17T15:42:41;18.90;99.90
21772;DHT22;11047;47.904;8.110;2022-10-17T15:45:09;18.80;99.90
21772;DHT22;11047;47.904;8.110;2022-10-17T15:47:37;18.80;99.90
21772;DHT22;11047;47.904;8.110;2022-10-17T15:50:06;18.70;99.90
21772;DHT22;11047;47.904;8.110;2022-10-17T15:52:34;18.60;99.90
21772;DHT22;11047;47.904;8.110;2022-10-17T15:55:01;18.40;99.90
21772;DHT22;11047;47.904;8.110;2022-10-17T15:57:30;18.30;99.90
21772;DHT22;11047;47.904;8.110;2022-10-17T15:59:59;18.10;99.90
21772;DHT22;11047;47.904;8.110;2022-10-17T16:02:26;18.00;99.90
21772;DHT22;11047;47.904;8.110;2022-10-17T16:04:53;17.80;99.90
21772;DHT22;11047;47.904;8.110;2022-10-17T16:07:21;17.70;99.90